createdAt,value
2019-04-21T00:00:54.250Z,49.50
2019-04-21T00:03:26.048Z,49.20
2019-04-21T00:06:09.415Z,49.90
2019-04-21T00:08:41.799Z,50.30
2019-04-21T00:11:20.629Z,50.00
2019-04-21T00:13:38.812Z,50.50
2019-04-21T00:16:00.252Z,51.10
2019-04-21T00:18:47.998Z,50.60
2019-04-21T00:21:18.318Z,51.20
2019-04-21T00:24:01.620Z,51.60
2019-04-21T00:26:33.534Z,51.30
2019-04-21T00:29:09.725Z,50.60
2019-04-21T00:31:36.679Z,50.40
2019-04-21T00:33:50.106Z,50.10
2019-04-21T00:36:27.380Z,49.80
2019-04-21T00:39:26.529Z,49.50
2019-04-21T00:41:43.928Z,50.00
2019-04-21T00:44:08.671Z,49.80
2019-04-21T00:46:45.214Z,49.70
2019-04-21T00:49:16.945Z,50.20
2019-04-21T00:52:25.141Z,50.50
2019-04-21T00:54:50.101Z,51.10
2019-04-21T00:57:19.610Z,50.70
2019-04-21T00:59:46.466Z,50.90
2019-04-21T01:02:16.873Z,50.70
2019-04-21T01:04:49.654Z,51.00
2019-04-21T01:07:21.990Z,51.50
2019-04-21T01:09:45.045Z,51.90
2019-04-21T01:12:28.275Z,51.90
2019-04-21T01:15:07.425Z,52.50
2019-04-21T01:17:29.058Z,51.80
2019-04-21T01:19:56.037Z,52.00
2019-04-21T01:22:10.176Z,52.30
2019-04-21T01:24:43.846Z,52.20
2019-04-21T01:27:22.425Z,52.50
2019-04-21T01:30:05.676Z,52.00
2019-04-21T01:32:34.391Z,52.10
2019-04-21T01:35:11.102Z,51.60
2019-04-21T01:37:44.053Z,51.80
2019-04-21T01:40:16.867Z,51.90
2019-04-21T01:42:43.612Z,51.70
2019-04-21T01:45:09.904Z,52.20
2019-04-21T01:47:40.502Z,52.50
2019-04-21T01:50:05.700Z,52.80
2019-04-21T01:52:51.485Z,52.70
2019-04-21T01:55:30.836Z,52.80
2019-04-21T01:58:09.723Z,52.80
2019-04-21T02:00:45.588Z,53.20
2019-04-21T02:03:40.659Z,53.20
2019-04-21T02:05:59.660Z,53.40
2019-04-21T02:08:21.962Z,53.70
2019-04-21T02:11:03.378Z,53.30
2019-04-21T02:13:23.142Z,53.50
2019-04-21T02:16:02.154Z,53.70
2019-04-21T02:18:28.770Z,53.90
2019-04-21T02:20:55.305Z,54.20
2019-04-21T02:23:41.198Z,54.10
2019-04-21T02:26:03.867Z,54.20
2019-04-21T02:28:42.431Z,53.70
2019-04-21T02:31:22.763Z,54.00
2019-04-21T02:33:56.202Z,54.00
2019-04-21T02:36:32.787Z,53.90
2019-04-21T02:38:55.972Z,54.30
2019-04-21T02:41:24.941Z,54.40
2019-04-21T02:44:00.633Z,54.60
2019-04-21T02:46:35.818Z,54.90
2019-04-21T02:49:06.272Z,55.10
2019-04-21T02:51:33.693Z,55.00
2019-04-21T02:54:37.337Z,55.10
2019-04-21T02:56:33.809Z,54.80
2019-04-21T02:59:30.482Z,55.50
2019-04-21T03:02:27.153Z,55.10
2019-04-21T03:04:42.602Z,55.20
2019-04-21T03:12:17.928Z,54.90
2019-04-21T03:15:08.062Z,55.20
2019-04-21T03:22:32.251Z,54.70
2019-04-21T03:30:21.324Z,55.70
2019-04-21T03:33:13.944Z,56.10
2019-04-21T03:35:54.322Z,56.80
2019-04-21T03:37:37.205Z,56.60
2019-04-21T03:40:16.698Z,56.30
2019-04-21T03:42:53.042Z,56.40
2019-04-21T03:45:25.107Z,56.40
2019-04-21T03:47:50.171Z,56.40
2019-04-21T03:50:22.657Z,57.10
2019-04-21T03:52:53.297Z,56.70
2019-04-21T03:58:23.973Z,58.90
2019-04-21T04:11:12.001Z,45.80
2019-04-21T04:13:48.035Z,44.90
2019-04-21T04:16:11.888Z,44.40
2019-04-21T04:23:49.368Z,43.30
2019-04-21T04:26:19.121Z,43.10
2019-04-21T04:31:28.777Z,42.20
2019-04-21T04:39:25.804Z,42.00
2019-04-21T04:42:08.107Z,41.70
2019-04-21T04:44:51.594Z,41.30
2019-04-21T04:47:05.549Z,41.00
2019-04-21T05:02:30.427Z,41.00
2019-04-21T05:04:46.288Z,41.00
2019-04-21T05:07:13.899Z,40.80
2019-04-21T05:09:48.032Z,40.70
2019-04-21T05:12:08.943Z,40.50
2019-04-21T05:14:48.245Z,41.10
2019-04-21T05:17:24.941Z,40.30
2019-04-21T05:24:37.519Z,39.40
2019-04-21T05:27:25.496Z,40.60
2019-04-21T05:30:09.373Z,43.30
2019-04-21T05:33:09.188Z,44.00
2019-04-21T05:36:09.392Z,43.50
2019-04-21T05:38:57.087Z,42.20
2019-04-21T05:41:31.375Z,42.50
2019-04-21T05:44:12.827Z,42.30
2019-04-21T05:46:52.318Z,41.70
2019-04-21T05:49:25.321Z,41.70
2019-04-21T05:51:58.324Z,42.10
2019-04-21T05:57:05.307Z,41.70
2019-04-21T05:59:40.021Z,41.90
2019-04-21T06:02:18.569Z,42.00
2019-04-21T06:07:18.794Z,40.80
2019-04-21T06:09:52.489Z,40.30
2019-04-21T06:12:16.124Z,39.50
2019-04-21T06:17:25.290Z,38.20
2019-04-21T06:20:07.856Z,37.90
2019-04-21T06:22:22.144Z,38.00
2019-04-21T06:25:21.687Z,37.70
2019-04-21T06:27:34.338Z,37.70
2019-04-21T06:30:00.194Z,37.50
2019-04-21T06:42:51.355Z,36.70
2019-04-21T06:45:25.767Z,36.40
2019-04-21T06:47:52.420Z,35.50
2019-04-21T06:50:22.734Z,35.40
2019-04-21T06:55:21.625Z,35.50
2019-04-21T06:57:51.716Z,35.30
2019-04-21T07:00:22.732Z,35.30
2019-04-21T07:03:01.204Z,35.30
2019-04-21T07:05:37.594Z,35.00
2019-04-21T07:08:14.863Z,34.40
2019-04-21T07:10:33.824Z,34.30
2019-04-21T07:12:58.309Z,34.00
2019-04-21T07:15:41.988Z,33.50
2019-04-21T07:18:08.991Z,33.40
2019-04-21T07:20:36.725Z,33.80
2019-04-21T07:23:09.312Z,33.70
2019-04-21T07:25:41.216Z,33.70
2019-04-21T07:28:12.849Z,33.70
2019-04-21T07:30:43.662Z,33.80
2019-04-21T07:33:44.726Z,33.70
2019-04-21T07:35:45.715Z,33.30
2019-04-21T07:38:16.667Z,33.00
2019-04-21T07:40:42.647Z,32.80
2019-04-21T07:43:16.654Z,32.50
2019-04-21T07:45:45.972Z,32.20
2019-04-21T07:48:24.701Z,31.20
2019-04-21T07:51:12.520Z,30.70
2019-04-21T07:53:53.335Z,30.00
2019-04-21T07:55:59.372Z,29.80
2019-04-21T07:58:53.418Z,29.20
2019-04-21T08:01:22.576Z,28.80
2019-04-21T08:03:49.064Z,30.70
2019-04-21T08:06:22.724Z,31.00
2019-04-21T08:08:52.901Z,32.00
2019-04-21T08:11:24.349Z,33.20
2019-04-21T08:13:55.047Z,33.30
2019-04-21T08:16:35.103Z,33.70
2019-04-21T08:18:59.777Z,33.10
2019-04-21T08:21:36.993Z,33.30
2019-04-21T08:24:00.165Z,34.00
2019-04-21T08:26:36.979Z,34.70
2019-04-21T08:29:13.241Z,34.00
2019-04-21T08:31:53.029Z,34.90
2019-04-21T08:34:13.885Z,33.90
2019-04-21T08:36:41.386Z,33.80
2019-04-21T08:39:12.985Z,34.00
2019-04-21T08:41:44.812Z,34.20
2019-04-21T08:44:24.347Z,33.40
2019-04-21T08:46:49.036Z,32.30
2019-04-21T08:49:15.536Z,31.30
2019-04-21T08:51:53.882Z,33.40
2019-04-21T08:54:23.543Z,34.20
2019-04-21T08:57:19.674Z,34.00
2019-04-21T09:00:05.138Z,32.90
2019-04-21T09:03:02.461Z,32.90
2019-04-21T09:05:04.676Z,33.00
2019-04-21T09:07:41.324Z,33.50
2019-04-21T09:10:10.796Z,33.10
2019-04-21T09:12:43.326Z,31.60
2019-04-21T09:15:14.402Z,32.40
2019-04-21T09:17:39.210Z,33.30
2019-04-21T09:20:17.322Z,31.20
2019-04-21T09:22:47.865Z,31.70
2019-04-21T09:25:19.699Z,32.20
2019-04-21T09:27:48.919Z,32.00
2019-04-21T09:30:06.542Z,31.40
2019-04-21T09:32:37.074Z,33.00
2019-04-21T09:35:11.273Z,33.40
2019-04-21T09:37:49.535Z,31.90
2019-04-21T09:40:13.500Z,33.30
2019-04-21T09:42:53.097Z,32.50
2019-04-21T09:45:15.792Z,32.70
2019-04-21T09:47:55.674Z,33.80
2019-04-21T09:50:17.578Z,34.40
2019-04-21T09:52:54.761Z,33.30
2019-04-21T09:55:22.542Z,32.40
2019-04-21T09:57:55.703Z,32.40
2019-04-21T10:00:26.603Z,34.00
2019-04-21T10:03:00.606Z,34.20
2019-04-21T10:05:27.329Z,32.20
2019-04-21T10:07:57.488Z,33.00
2019-04-21T10:10:27.609Z,34.40
2019-04-21T10:12:57.721Z,32.60
2019-04-21T10:15:28.300Z,33.50
2019-04-21T10:18:02.618Z,34.10
2019-04-21T10:20:32.929Z,33.20
2019-04-21T10:23:02.955Z,32.30
2019-04-21T10:25:32.832Z,32.40
2019-04-21T10:28:03.317Z,32.70
2019-04-21T10:30:33.445Z,33.20
2019-04-21T10:33:04.017Z,33.10
2019-04-21T10:35:35.148Z,32.90
2019-04-21T10:38:16.992Z,32.10
2019-04-21T10:40:37.324Z,33.80
2019-04-21T10:43:10.035Z,33.30
2019-04-21T10:45:39.159Z,30.70
2019-04-21T10:48:10.675Z,32.10
2019-04-21T10:50:41.152Z,30.30
2019-04-21T10:53:16.590Z,32.50
2019-04-21T10:56:01.586Z,33.00
2019-04-21T10:58:40.379Z,31.90
2019-04-21T11:01:31.356Z,31.00
2019-04-21T11:04:32.371Z,32.20
2019-04-21T11:07:06.683Z,33.00
2019-04-21T11:09:29.879Z,32.70
2019-04-21T11:12:00.029Z,33.30
2019-04-21T11:14:29.748Z,31.30
2019-04-21T11:17:00.526Z,32.90
2019-04-21T11:19:30.748Z,32.30
2019-04-21T11:22:01.024Z,32.00
2019-04-21T11:24:31.381Z,30.90
2019-04-21T11:27:01.858Z,32.90
2019-04-21T11:29:33.100Z,32.90
2019-04-21T11:32:03.124Z,33.80
2019-04-21T11:34:33.462Z,33.60
2019-04-21T11:37:06.051Z,34.10
2019-04-21T11:39:45.839Z,33.50
2019-04-21T11:42:17.618Z,33.60
2019-04-21T11:44:47.426Z,32.60
2019-04-21T11:47:24.663Z,34.00
2019-04-21T11:49:54.952Z,34.40
2019-04-21T11:52:25.074Z,34.20
2019-04-21T11:54:55.187Z,33.60
2019-04-21T11:57:30.428Z,33.90
2019-04-21T11:59:57.517Z,33.40
2019-04-21T12:02:27.648Z,34.40
2019-04-21T12:04:57.527Z,34.50
2019-04-21T12:07:29.306Z,35.10
2019-04-21T12:09:59.694Z,34.70
2019-04-21T12:12:29.632Z,34.50
2019-04-21T12:14:59.916Z,32.20
2019-04-21T12:17:30.058Z,33.30
2019-04-21T12:20:01.030Z,33.00
2019-04-21T12:22:33.958Z,32.20
2019-04-21T12:25:07.062Z,34.20
2019-04-21T12:27:38.028Z,34.10
2019-04-21T12:30:09.439Z,34.60
2019-04-21T12:32:56.097Z,33.70
2019-04-21T12:35:28.002Z,34.30
2019-04-21T12:37:58.519Z,35.00
2019-04-21T12:40:28.535Z,34.70
2019-04-21T12:42:58.809Z,34.40
2019-04-21T12:45:28.671Z,32.30
2019-04-21T12:47:59.955Z,34.20
2019-04-21T12:50:30.119Z,31.30
2019-04-21T12:53:00.004Z,30.60
2019-04-21T12:55:36.637Z,31.20
2019-04-21T12:58:03.483Z,30.70
2019-04-21T13:00:33.476Z,31.40
2019-04-21T13:03:03.637Z,33.20
2019-04-21T13:05:33.927Z,32.10
2019-04-21T13:08:03.901Z,33.00
2019-04-21T13:10:34.028Z,32.80
2019-04-21T13:13:03.999Z,31.60
2019-04-21T13:15:33.732Z,30.50
2019-04-21T13:18:04.635Z,30.10
2019-04-21T13:20:35.878Z,32.00
2019-04-21T13:23:06.044Z,31.00
2019-04-21T13:25:36.252Z,31.70
2019-04-21T13:28:06.968Z,31.20
2019-04-21T13:30:38.077Z,29.90
2019-04-21T13:33:09.146Z,29.30
2019-04-21T13:35:39.200Z,30.30
2019-04-21T13:38:20.034Z,28.70
2019-04-21T13:41:05.361Z,29.20
2019-04-21T13:43:23.266Z,30.20
2019-04-21T13:45:54.085Z,29.70
2019-04-21T13:48:24.397Z,28.90
2019-04-21T13:50:55.297Z,29.60
2019-04-21T13:53:25.233Z,29.00
2019-04-21T13:55:56.424Z,29.70
2019-04-21T13:58:26.442Z,29.70
2019-04-21T14:00:56.228Z,30.90
2019-04-21T14:03:26.751Z,31.30
2019-04-21T14:05:58.187Z,29.80
2019-04-21T14:08:47.169Z,30.10
2019-04-21T14:11:17.625Z,30.70
2019-04-21T14:13:48.587Z,30.00
2019-04-21T14:16:18.271Z,31.00
2019-04-21T14:18:47.935Z,30.70
2019-04-21T14:21:18.837Z,30.80
2019-04-21T14:23:52.133Z,30.00
2019-04-21T14:26:20.326Z,30.00
2019-04-21T14:28:51.251Z,31.00
2019-04-21T14:31:22.204Z,30.10
2019-04-21T14:33:52.137Z,31.90
2019-04-21T14:36:23.007Z,29.50
2019-04-21T14:38:54.422Z,31.60
2019-04-21T14:41:24.324Z,30.00
2019-04-21T14:43:55.120Z,30.60
2019-04-21T14:46:31.209Z,29.70
2019-04-21T14:49:13.142Z,29.90
2019-04-21T14:51:53.186Z,29.80
2019-04-21T14:54:40.406Z,31.10
2019-04-21T14:57:11.446Z,29.50
2019-04-21T14:59:42.718Z,30.40
2019-04-21T15:02:14.071Z,29.80
2019-04-21T15:04:43.972Z,29.20
2019-04-21T15:07:14.929Z,29.70
2019-04-21T15:09:46.365Z,29.70
2019-04-21T15:12:16.357Z,30.50
2019-04-21T15:14:47.579Z,29.90
2019-04-21T15:17:20.695Z,29.60
2019-04-21T15:19:56.084Z,29.30
2019-04-21T15:22:20.746Z,29.70
2019-04-21T15:24:52.022Z,29.90
2019-04-21T15:27:23.125Z,30.00
2019-04-21T15:29:53.087Z,30.40
2019-04-21T15:32:22.800Z,30.20
2019-04-21T15:34:52.523Z,29.40
2019-04-21T15:37:22.218Z,31.20
2019-04-21T15:39:53.069Z,31.10
2019-04-21T15:42:24.355Z,27.40
2019-04-21T15:44:54.636Z,28.10
2019-04-21T15:47:26.113Z,28.60
2019-04-21T15:50:02.999Z,29.60
2019-04-21T15:52:29.805Z,30.00
2019-04-21T15:55:05.995Z,28.60
2019-04-21T15:57:54.818Z,29.30
2019-04-21T16:00:36.096Z,30.40
2019-04-21T16:03:06.802Z,30.50
2019-04-21T16:05:37.124Z,30.20
2019-04-21T16:08:07.902Z,29.80
2019-04-21T16:10:52.630Z,32.00
2019-04-21T16:13:17.108Z,30.00
2019-04-21T16:15:48.340Z,30.50
2019-04-21T16:18:18.372Z,30.70
2019-04-21T16:20:48.284Z,31.10
2019-04-21T16:23:18.278Z,30.70
2019-04-21T16:25:48.742Z,31.80
2019-04-21T16:28:19.280Z,30.30
2019-04-21T16:30:49.095Z,30.00
2019-04-21T16:33:18.886Z,29.40
2019-04-21T16:35:49.555Z,29.80
2019-04-21T16:38:19.698Z,30.00
2019-04-21T16:40:56.391Z,30.20
2019-04-21T16:43:22.798Z,31.30
2019-04-21T16:45:52.947Z,31.30
2019-04-21T16:48:23.322Z,31.10
2019-04-21T16:50:53.330Z,31.70
2019-04-21T16:53:34.132Z,31.00
2019-04-21T16:56:13.023Z,31.10
2019-04-21T16:58:52.610Z,29.90
2019-04-21T17:01:27.640Z,30.20
2019-04-21T17:03:58.310Z,30.40
2019-04-21T17:06:29.403Z,30.90
2019-04-21T17:08:59.178Z,31.30
2019-04-21T17:11:31.528Z,31.50
2019-04-21T17:14:00.714Z,31.70
2019-04-21T17:17:09.945Z,31.90
2019-04-21T17:19:13.721Z,32.20
2019-04-21T17:21:34.223Z,32.30
2019-04-21T17:24:04.505Z,32.20
2019-04-21T17:26:37.436Z,32.60
2019-04-21T17:29:06.841Z,32.70
2019-04-21T17:31:37.164Z,32.90
2019-04-21T17:34:12.418Z,33.40
2019-04-21T17:36:39.259Z,33.30
2019-04-21T17:39:10.984Z,31.60
2019-04-21T17:41:55.997Z,32.70
2019-04-21T17:44:12.996Z,33.00
2019-04-21T17:46:50.015Z,33.10
2019-04-21T17:49:14.986Z,32.90
2019-04-21T17:52:11.431Z,33.20
2019-04-21T17:54:49.104Z,32.80
2019-04-21T17:57:37.961Z,33.20
2019-04-21T18:00:08.180Z,33.20
2019-04-21T18:02:41.683Z,33.80
2019-04-21T18:05:17.972Z,33.30
2019-04-21T18:07:46.766Z,33.40
2019-04-21T18:10:07.410Z,33.80
2019-04-21T18:12:35.950Z,32.70
2019-04-21T18:15:16.160Z,33.60
2019-04-21T18:17:27.107Z,34.10
2019-04-21T18:19:57.341Z,33.70
2019-04-21T18:22:54.706Z,33.70
2019-04-21T18:25:41.115Z,34.00
2019-04-21T18:27:58.725Z,34.00
2019-04-21T18:30:44.388Z,34.40
2019-04-21T18:33:23.544Z,34.30
2019-04-21T18:36:06.555Z,34.10
2019-04-21T18:39:10.038Z,34.70
2019-04-21T18:41:30.000Z,34.80
2019-04-21T18:44:30.305Z,34.90
2019-04-21T18:46:58.610Z,35.20
2019-04-21T18:49:24.957Z,35.70
2019-04-21T18:52:06.815Z,35.60
2019-04-21T18:54:46.109Z,36.50
2019-04-21T18:57:10.786Z,36.20
2019-04-21T18:59:36.100Z,36.00
2019-04-21T19:02:09.854Z,36.80
2019-04-21T19:04:37.577Z,36.80
2019-04-21T19:07:19.845Z,36.70
2019-04-21T19:10:14.373Z,37.30
2019-04-21T19:12:47.777Z,37.90
2019-04-21T19:15:02.595Z,37.60
2019-04-21T19:20:11.750Z,37.60
2019-04-21T19:22:38.423Z,37.70
2019-04-21T19:25:09.697Z,37.90
2019-04-21T19:27:38.304Z,37.80
2019-04-21T19:32:38.929Z,35.40
2019-04-21T19:34:59.399Z,37.10
2019-04-21T19:37:30.152Z,38.60
2019-04-21T19:40:11.886Z,39.50
2019-04-21T19:42:42.825Z,40.10
2019-04-21T19:45:19.142Z,40.70
2019-04-21T19:47:53.214Z,40.90
2019-04-21T19:50:30.964Z,41.20
2019-04-21T19:52:48.623Z,41.30
2019-04-21T19:55:12.064Z,41.60
2019-04-21T19:57:43.156Z,41.70
2019-04-21T20:00:14.064Z,42.00
2019-04-21T20:02:44.865Z,42.20
2019-04-21T20:05:24.177Z,42.30
2019-04-21T20:08:03.757Z,42.50
2019-04-21T20:10:39.525Z,42.60
2019-04-21T20:13:07.241Z,42.90
2019-04-21T20:15:41.636Z,43.00
2019-04-21T20:18:06.246Z,43.20
2019-04-21T20:20:24.867Z,43.60
2019-04-21T20:22:57.367Z,43.90
2019-04-21T20:25:28.711Z,43.90
2019-04-21T20:28:09.089Z,44.10
2019-04-21T20:30:49.003Z,44.00
2019-04-21T20:33:41.307Z,44.30
2019-04-21T20:38:16.128Z,44.60
2019-04-21T20:40:46.964Z,44.60
2019-04-21T20:43:28.513Z,44.90
2019-04-21T20:46:00.852Z,44.90
2019-04-21T20:48:20.026Z,44.90
2019-04-21T20:51:00.598Z,45.00
2019-04-21T20:53:32.884Z,45.20
2019-04-21T20:55:58.438Z,45.50
2019-04-21T20:58:34.815Z,45.60
2019-04-21T21:01:23.948Z,45.50
2019-04-21T21:03:46.076Z,45.50
2019-04-21T21:06:02.255Z,45.80
2019-04-21T21:08:40.311Z,45.80
2019-04-21T21:11:08.008Z,45.70
2019-04-21T21:13:44.387Z,45.80
2019-04-21T21:16:29.638Z,46.20
2019-04-21T21:19:11.203Z,46.30
2019-04-21T21:21:15.306Z,46.50
2019-04-21T21:23:51.280Z,46.20
2019-04-21T21:26:28.268Z,46.30
2019-04-21T21:28:45.962Z,46.40
2019-04-21T21:31:25.140Z,46.20
2019-04-21T21:36:27.380Z,46.20
2019-04-21T21:39:01.382Z,46.00
2019-04-21T21:41:22.344Z,46.40
2019-04-21T21:43:47.755Z,46.40
2019-04-21T21:46:39.011Z,46.30
2019-04-21T21:48:59.009Z,46.40
2019-04-21T21:51:33.062Z,46.50
2019-04-21T21:53:50.621Z,46.40
2019-04-21T21:56:20.653Z,46.40
2019-04-21T21:58:51.964Z,46.70
2019-04-21T22:01:31.842Z,47.10
2019-04-21T22:04:02.957Z,47.00
2019-04-21T22:06:34.538Z,46.90
2019-04-21T22:08:56.653Z,47.00
2019-04-21T22:11:26.503Z,47.20
2019-04-21T22:14:02.793Z,47.30
2019-04-21T22:16:38.857Z,47.60
2019-04-21T22:19:21.909Z,47.50
2019-04-21T22:21:47.731Z,47.70
2019-04-21T22:24:09.418Z,47.60
2019-04-21T22:26:34.793Z,47.60
2019-04-21T22:29:05.593Z,47.90
2019-04-21T22:31:38.914Z,47.90
2019-04-21T22:34:10.571Z,47.90
2019-04-21T22:36:48.711Z,48.00
2019-04-21T22:39:30.714Z,48.20
2019-04-21T22:41:46.601Z,48.10
2019-04-21T22:44:18.371Z,48.20
2019-04-21T22:46:58.416Z,48.40
2019-04-21T22:49:22.297Z,48.10
2019-04-21T22:51:53.853Z,48.50
2019-04-21T22:54:29.927Z,47.90
2019-04-21T22:57:04.758Z,47.80
2019-04-21T22:59:28.627Z,47.90
2019-04-21T23:01:59.521Z,48.10
2019-04-21T23:04:35.552Z,48.10
2019-04-21T23:07:07.014Z,48.90
2019-04-21T23:09:33.029Z,48.30
2019-04-21T23:12:03.618Z,47.60
2019-04-21T23:14:45.377Z,47.30
2019-04-21T23:17:29.280Z,47.60
2019-04-21T23:19:59.921Z,47.70
2019-04-21T23:22:29.283Z,47.80
2019-04-21T23:25:03.713Z,48.00
2019-04-21T23:27:26.342Z,47.90
2019-04-21T23:30:08.125Z,48.20
2019-04-21T23:32:30.407Z,48.00
2019-04-21T23:34:49.232Z,47.90
2019-04-21T23:37:23.267Z,48.00
2019-04-21T23:39:54.665Z,48.20
2019-04-21T23:42:30.516Z,48.10
2019-04-21T23:44:58.096Z,48.20
2019-04-21T23:47:35.580Z,48.10
2019-04-21T23:50:02.710Z,48.20
2019-04-21T23:52:27.962Z,48.30
2019-04-21T23:54:58.926Z,48.30
2019-04-21T23:57:35.866Z,48.50
